createdAt,value
2022-07-30T00:00:40.150Z,5.47
2022-07-30T00:03:08.683Z,5.87
2022-07-30T00:05:37.170Z,6.27
2022-07-30T00:08:05.993Z,4.43
2022-07-30T00:10:34.440Z,5.17
2022-07-30T00:13:02.979Z,6.17
2022-07-30T00:15:33.047Z,4.63
2022-07-30T00:18:01.620Z,4.20
2022-07-30T00:20:30.415Z,6.27
2022-07-30T00:23:00.741Z,5.73
2022-07-30T00:25:29.117Z,4.30
2022-07-30T00:27:57.756Z,5.50
2022-07-30T00:30:26.766Z,6.40
2022-07-30T00:32:56.658Z,6.10
2022-07-30T00:35:25.128Z,4.50
2022-07-30T00:37:56.130Z,5.30
2022-07-30T00:40:25.150Z,5.03
2022-07-30T00:42:53.682Z,4.63
2022-07-30T00:45:22.106Z,4.27
2022-07-30T00:47:50.820Z,2.70
2022-07-30T00:50:20.731Z,4.27
2022-07-30T00:52:50.054Z,6.03
2022-07-30T00:55:19.265Z,5.93
2022-07-30T00:57:47.857Z,5.40
2022-07-30T01:00:18.563Z,5.43
2022-07-30T01:02:47.366Z,6.20
2022-07-30T01:05:16.166Z,8.07
2022-07-30T01:07:46.503Z,5.23
2022-07-30T01:10:16.807Z,3.87
2022-07-30T01:12:47.315Z,4.43
2022-07-30T01:15:17.381Z,4.93
2022-07-30T01:17:52.705Z,4.83
2022-07-30T01:20:27.844Z,5.57
2022-07-30T01:23:06.535Z,2.60
2022-07-30T01:25:55.664Z,7.70
2022-07-30T01:28:27.895Z,6.33
2022-07-30T01:30:58.624Z,4.47
2022-07-30T01:33:29.111Z,7.10
2022-07-30T01:35:59.384Z,3.33
2022-07-30T01:38:35.163Z,2.87
2022-07-30T01:41:08.051Z,3.80
2022-07-30T01:43:37.677Z,7.00
2022-07-30T01:46:07.386Z,4.77
2022-07-30T01:48:38.704Z,3.73
2022-07-30T01:51:08.149Z,3.17
2022-07-30T01:53:40.875Z,5.30
2022-07-30T01:56:13.580Z,4.27
2022-07-30T01:58:48.209Z,7.67
2022-07-30T02:01:17.146Z,4.80
2022-07-30T02:03:45.985Z,3.03
2022-07-30T02:06:20.000Z,5.60
2022-07-30T02:08:55.797Z,23.67
2022-07-30T02:11:39.615Z,604.00
2022-07-30T02:14:12.819Z,731.00
2022-07-30T02:16:44.365Z,764.73
2022-07-30T02:19:15.946Z,72.40
2022-07-30T02:21:50.493Z,9.43
2022-07-30T02:24:23.746Z,3.70
2022-07-30T02:26:58.355Z,5.70
2022-07-30T02:29:27.653Z,4.07
2022-07-30T02:31:59.919Z,4.33
2022-07-30T02:34:31.392Z,3.57
2022-07-30T02:37:02.746Z,4.87
2022-07-30T02:39:33.077Z,3.33
2022-07-30T02:42:05.271Z,3.03
2022-07-30T02:44:34.772Z,3.23
2022-07-30T02:47:05.415Z,5.00
2022-07-30T02:49:37.097Z,4.50
2022-07-30T02:52:09.333Z,5.87
2022-07-30T02:54:40.183Z,3.70
2022-07-30T02:57:11.164Z,2.63
2022-07-30T02:59:42.659Z,3.10
2022-07-30T03:02:14.882Z,4.07
2022-07-30T03:04:44.881Z,4.70
2022-07-30T03:07:18.677Z,4.57
2022-07-30T03:09:52.121Z,2.77
2022-07-30T03:12:23.974Z,2.07
2022-07-30T03:14:52.835Z,2.10
2022-07-30T03:17:23.343Z,3.03
2022-07-30T03:19:52.467Z,3.50
2022-07-30T03:22:22.805Z,9.03
2022-07-30T03:24:53.010Z,6.57
2022-07-30T03:27:24.938Z,4.20
2022-07-30T03:29:56.177Z,4.13
2022-07-30T03:32:26.215Z,6.20
2022-07-30T03:34:56.118Z,2.43
2022-07-30T03:37:27.221Z,3.23
2022-07-30T03:39:58.671Z,6.20
2022-07-30T03:42:28.983Z,10.07
2022-07-30T03:44:59.413Z,6.63
2022-07-30T03:47:29.338Z,5.97
2022-07-30T03:49:58.066Z,2.37
2022-07-30T03:52:27.627Z,3.57
2022-07-30T03:54:56.504Z,4.23
2022-07-30T03:57:25.277Z,3.70
2022-07-30T03:59:55.357Z,3.97
2022-07-30T04:02:23.855Z,3.03
2022-07-30T04:04:52.878Z,3.63
2022-07-30T04:07:21.414Z,8.27
2022-07-30T04:09:49.948Z,6.20
2022-07-30T04:12:18.415Z,4.60
2022-07-30T04:14:47.300Z,3.83
2022-07-30T04:17:23.137Z,2.17
2022-07-30T04:19:55.227Z,5.73
2022-07-30T04:22:29.749Z,4.90
2022-07-30T04:25:00.111Z,4.27
2022-07-30T04:27:29.578Z,4.57
2022-07-30T04:29:58.485Z,4.10
2022-07-30T04:32:30.025Z,3.27
2022-07-30T04:34:59.145Z,3.37
2022-07-30T04:37:29.363Z,5.73
2022-07-30T04:39:58.984Z,1.53
2022-07-30T04:42:28.984Z,4.23
2022-07-30T04:44:58.388Z,3.80
2022-07-30T04:47:28.513Z,2.63
2022-07-30T04:49:58.676Z,4.40
2022-07-30T04:52:27.856Z,2.40
2022-07-30T04:54:59.387Z,2.90
2022-07-30T04:57:30.022Z,3.40
2022-07-30T04:59:58.627Z,3.83
2022-07-30T05:02:31.693Z,2.83
2022-07-30T05:05:01.445Z,1.63
2022-07-30T05:07:33.717Z,3.40
2022-07-30T05:10:02.361Z,2.27
2022-07-30T05:12:34.654Z,2.53
2022-07-30T05:15:03.167Z,2.67
2022-07-30T05:17:33.342Z,2.60
2022-07-30T05:20:02.045Z,4.23
2022-07-30T05:22:31.376Z,2.83
2022-07-30T05:25:00.189Z,2.80
2022-07-30T05:27:28.981Z,3.07
2022-07-30T05:29:57.447Z,5.40
2022-07-30T05:32:27.130Z,2.63
2022-07-30T05:34:58.826Z,5.97
2022-07-30T05:37:27.354Z,4.00
2022-07-30T05:40:02.324Z,3.00
2022-07-30T05:42:31.490Z,2.70
2022-07-30T05:45:00.875Z,6.87
2022-07-30T05:47:29.335Z,3.63
2022-07-30T05:50:04.207Z,4.60
2022-07-30T05:52:33.599Z,2.20
2022-07-30T05:55:02.153Z,2.67
2022-07-30T05:57:30.744Z,4.83
2022-07-30T05:59:59.349Z,2.30
2022-07-30T06:02:27.893Z,5.27
2022-07-30T06:04:56.457Z,1.63
2022-07-30T06:07:26.360Z,2.97
2022-07-30T06:09:54.821Z,5.43
2022-07-30T06:12:23.523Z,2.33
2022-07-30T06:14:52.058Z,8.43
2022-07-30T06:17:20.515Z,3.70
2022-07-30T06:19:49.014Z,4.40
2022-07-30T06:22:20.699Z,2.03
2022-07-30T06:24:52.709Z,3.63
2022-07-30T06:27:21.111Z,3.73
2022-07-30T06:29:49.581Z,4.63
2022-07-30T06:32:19.443Z,3.23
2022-07-30T06:34:47.880Z,3.63
2022-07-30T06:37:17.242Z,8.77
2022-07-30T06:39:57.946Z,7.43
2022-07-30T06:42:29.149Z,3.60
2022-07-30T06:44:57.753Z,5.83
2022-07-30T06:47:29.334Z,2.53
2022-07-30T06:49:58.434Z,6.47
2022-07-30T06:52:26.933Z,5.47
2022-07-30T06:54:55.653Z,8.23
2022-07-30T06:57:24.339Z,6.97
2022-07-30T06:59:56.236Z,8.00
2022-07-30T07:02:26.712Z,4.13
2022-07-30T07:05:02.115Z,3.40
2022-07-30T07:07:41.164Z,3.50
2022-07-30T07:10:11.434Z,2.93
2022-07-30T07:12:39.899Z,3.87
2022-07-30T07:15:11.144Z,5.33
2022-07-30T07:17:40.724Z,3.40
2022-07-30T07:20:10.222Z,6.07
2022-07-30T07:22:50.178Z,9.50
2022-07-30T07:25:19.048Z,4.03
2022-07-30T07:28:11.740Z,2.40
2022-07-30T07:30:38.414Z,3.03
2022-07-30T07:33:07.102Z,3.57
2022-07-30T07:35:45.537Z,3.83
2022-07-30T07:38:17.835Z,4.13
2022-07-30T07:40:47.504Z,3.87
2022-07-30T07:43:16.867Z,6.50
2022-07-30T07:45:48.163Z,2.03
2022-07-30T07:48:17.183Z,4.40
2022-07-30T07:50:45.845Z,2.73
2022-07-30T07:53:14.557Z,3.03
2022-07-30T07:55:43.517Z,3.20
2022-07-30T07:58:18.182Z,3.87
2022-07-30T08:00:56.045Z,4.03
2022-07-30T08:03:25.655Z,1.70
2022-07-30T08:06:05.419Z,4.60
2022-07-30T08:08:37.289Z,9.23
2022-07-30T08:11:07.729Z,6.00
2022-07-30T08:13:52.331Z,5.97
2022-07-30T08:16:24.172Z,5.30
2022-07-30T08:18:52.767Z,2.50
2022-07-30T08:21:21.200Z,2.80
2022-07-30T08:23:50.070Z,6.10
2022-07-30T08:26:18.521Z,6.73
2022-07-30T08:28:47.036Z,6.80
2022-07-30T08:31:15.916Z,3.50
2022-07-30T08:33:46.121Z,4.10
2022-07-30T08:36:14.609Z,3.70
2022-07-30T08:38:43.155Z,6.23
2022-07-30T08:41:11.720Z,7.30
2022-07-30T08:43:41.499Z,4.97
2022-07-30T08:46:14.367Z,3.50
2022-07-30T08:48:43.803Z,4.40
2022-07-30T08:51:14.846Z,3.90
2022-07-30T08:53:44.776Z,7.10
2022-07-30T08:56:13.526Z,4.30
2022-07-30T08:58:43.553Z,3.70
2022-07-30T09:01:11.953Z,5.57
2022-07-30T09:03:44.536Z,4.60
2022-07-30T09:06:14.626Z,5.23
2022-07-30T09:08:43.232Z,4.47
2022-07-30T09:11:11.709Z,2.20
2022-07-30T09:13:42.565Z,2.43
2022-07-30T09:16:22.494Z,4.17
2022-07-30T09:18:52.406Z,5.17
2022-07-30T09:21:24.805Z,7.10
2022-07-30T09:24:01.404Z,4.93
2022-07-30T09:26:30.275Z,4.30
2022-07-30T09:29:17.596Z,7.30
2022-07-30T09:31:58.078Z,4.53
2022-07-30T09:34:31.533Z,3.97
2022-07-30T09:37:03.664Z,2.57
2022-07-30T09:39:34.308Z,2.80
2022-07-30T09:42:04.316Z,3.43
2022-07-30T09:44:33.573Z,3.57
2022-07-30T09:47:03.156Z,4.83
2022-07-30T09:49:34.418Z,4.13
2022-07-30T09:52:04.459Z,3.67
2022-07-30T09:54:51.309Z,5.43
2022-07-30T09:57:25.915Z,4.57
2022-07-30T09:59:56.938Z,3.40
2022-07-30T10:02:35.377Z,4.70
2022-07-30T10:05:16.742Z,3.90
2022-07-30T10:07:54.236Z,2.87
2022-07-30T10:10:25.712Z,2.90
2022-07-30T10:12:56.557Z,5.13
2022-07-30T10:15:29.316Z,5.03
2022-07-30T10:17:58.476Z,4.67
2022-07-30T10:20:27.418Z,4.00
2022-07-30T10:22:57.832Z,2.73
2022-07-30T10:25:28.462Z,4.93
2022-07-30T10:27:58.089Z,4.17
2022-07-30T10:30:29.164Z,3.40
2022-07-30T10:33:00.166Z,2.30
2022-07-30T10:35:34.218Z,3.70
2022-07-30T10:38:13.671Z,3.80
2022-07-30T10:40:49.762Z,2.40
2022-07-30T10:44:01.108Z,5.90
2022-07-30T10:46:45.074Z,4.33
2022-07-30T10:49:18.580Z,3.87
2022-07-30T10:51:50.121Z,3.37
2022-07-30T10:54:42.893Z,5.67
2022-07-30T10:57:22.703Z,6.43
2022-07-30T11:00:12.281Z,5.00
2022-07-30T11:03:15.944Z,5.27
2022-07-30T11:05:45.937Z,6.33
2022-07-30T11:08:48.669Z,7.50
2022-07-30T11:12:02.140Z,7.33
2022-07-30T11:14:57.046Z,4.87
2022-07-30T11:17:25.968Z,7.17
2022-07-30T11:20:13.295Z,9.23
2022-07-30T11:22:44.838Z,3.93
2022-07-30T11:25:51.658Z,4.37
2022-07-30T11:28:49.561Z,5.73
2022-07-30T11:31:37.039Z,4.70
2022-07-30T11:34:29.146Z,3.80
2022-07-30T11:37:19.322Z,5.10
2022-07-30T11:40:13.319Z,5.13
2022-07-30T11:42:44.403Z,4.30
2022-07-30T11:45:29.871Z,3.93
2022-07-30T11:48:01.571Z,6.47
2022-07-30T11:50:32.382Z,4.60
2022-07-30T11:53:03.101Z,5.13
2022-07-30T11:55:33.094Z,7.23
2022-07-30T11:58:03.520Z,6.33
2022-07-30T12:00:41.845Z,5.67
2022-07-30T12:03:15.665Z,3.47
2022-07-30T12:05:45.664Z,5.60
2022-07-30T12:08:35.929Z,5.17
2022-07-30T12:11:05.196Z,6.87
2022-07-30T12:13:45.748Z,3.87
2022-07-30T12:16:18.122Z,6.47
2022-07-30T12:18:47.807Z,3.93
2022-07-30T12:21:17.423Z,4.80
2022-07-30T12:23:56.048Z,4.03
2022-07-30T12:26:27.147Z,6.20
2022-07-30T12:28:56.767Z,4.33
2022-07-30T12:31:27.168Z,4.40
2022-07-30T12:33:58.992Z,4.33
2022-07-30T12:36:32.891Z,4.77
2022-07-30T12:39:01.973Z,5.93
2022-07-30T12:41:52.176Z,6.57
2022-07-30T12:44:39.922Z,5.63
2022-07-30T12:47:22.011Z,4.90
2022-07-30T12:49:53.378Z,8.50
2022-07-30T12:52:28.699Z,5.87
2022-07-30T12:55:07.186Z,7.47
2022-07-30T12:57:55.833Z,7.13
2022-07-30T13:00:24.691Z,6.00
2022-07-30T13:02:55.384Z,6.43
2022-07-30T13:05:44.389Z,6.67
2022-07-30T13:08:12.942Z,7.60
2022-07-30T13:10:55.913Z,7.97
2022-07-30T13:13:24.761Z,6.83
2022-07-30T13:16:01.287Z,9.70
2022-07-30T13:18:32.115Z,6.80
2022-07-30T13:21:01.121Z,7.73
2022-07-30T13:23:30.875Z,8.27
2022-07-30T13:25:59.541Z,7.20
2022-07-30T13:28:28.426Z,91.67
2022-07-30T13:30:58.142Z,56.80
2022-07-30T13:33:27.164Z,9.63
2022-07-30T13:35:57.488Z,12.27
2022-07-30T13:38:26.488Z,7.80
2022-07-30T13:40:58.016Z,7.47
2022-07-30T13:43:32.047Z,9.20
2022-07-30T13:46:03.259Z,7.53
2022-07-30T13:48:32.113Z,7.57
2022-07-30T13:51:04.477Z,5.57
2022-07-30T13:53:33.508Z,6.53
2022-07-30T13:56:02.027Z,4.63
2022-07-30T13:58:35.732Z,3.70
2022-07-30T14:01:07.659Z,3.97
2022-07-30T14:03:36.625Z,3.80
2022-07-30T14:06:10.617Z,3.47
2022-07-30T14:08:40.099Z,4.13
2022-07-30T14:11:08.631Z,3.80
2022-07-30T14:13:38.132Z,3.87
2022-07-30T14:16:18.121Z,4.97
2022-07-30T14:18:55.872Z,3.50
2022-07-30T14:21:26.432Z,2.80
2022-07-30T14:23:55.235Z,4.97
2022-07-30T14:26:23.698Z,5.20
2022-07-30T14:28:52.184Z,3.80
2022-07-30T14:31:20.659Z,3.63
2022-07-30T14:33:49.078Z,3.80
2022-07-30T14:36:17.856Z,3.77
2022-07-30T14:38:47.967Z,3.77
2022-07-30T14:41:16.869Z,4.60
2022-07-30T14:43:45.348Z,3.83
2022-07-30T14:46:14.258Z,8.37
2022-07-30T14:48:42.760Z,7.30
2022-07-30T14:51:16.831Z,7.83
2022-07-30T14:53:53.805Z,5.90
2022-07-30T14:56:24.237Z,4.50
2022-07-30T14:58:55.735Z,6.80
2022-07-30T15:01:24.207Z,5.30
2022-07-30T15:03:52.737Z,3.97
2022-07-30T15:06:21.257Z,3.33
2022-07-30T15:08:51.153Z,3.33
2022-07-30T15:11:21.869Z,2.60
2022-07-30T15:13:50.862Z,2.80
2022-07-30T15:16:20.384Z,3.27
2022-07-30T15:18:48.790Z,2.20
2022-07-30T15:21:17.389Z,3.37
2022-07-30T15:23:45.925Z,3.80
2022-07-30T15:26:15.843Z,2.40
2022-07-30T15:28:44.854Z,3.77
2022-07-30T15:31:13.462Z,4.60
2022-07-30T15:33:43.413Z,4.23
2022-07-30T15:36:12.727Z,4.33
2022-07-30T15:38:41.218Z,5.67
2022-07-30T15:41:13.506Z,4.60
2022-07-30T15:43:43.634Z,6.10
2022-07-30T15:46:12.226Z,2.17
2022-07-30T15:48:40.825Z,1.73
2022-07-30T15:51:09.632Z,1.60
2022-07-30T15:53:38.113Z,1.90
2022-07-30T15:56:07.018Z,2.13
2022-07-30T15:58:37.431Z,3.03
2022-07-30T16:01:10.523Z,2.37
2022-07-30T16:03:39.059Z,2.20
2022-07-30T16:06:07.811Z,2.03
2022-07-30T16:08:36.341Z,2.20
2022-07-30T16:11:05.318Z,2.10
2022-07-30T16:13:33.742Z,2.13
2022-07-30T16:16:02.209Z,2.77
2022-07-30T16:18:32.105Z,2.60
2022-07-30T16:21:01.478Z,2.23
2022-07-30T16:23:36.509Z,3.90
2022-07-30T16:26:05.692Z,2.57
2022-07-30T16:28:34.306Z,5.83
2022-07-30T16:31:02.920Z,2.27
2022-07-30T16:33:33.031Z,1.83
2022-07-30T16:36:01.515Z,4.97
2022-07-30T16:38:30.037Z,3.87
2022-07-30T16:40:58.688Z,2.20
2022-07-30T16:43:27.178Z,3.33
2022-07-30T16:45:55.674Z,3.07
2022-07-30T16:48:24.349Z,2.93
2022-07-30T16:50:54.203Z,2.93
2022-07-30T16:53:23.057Z,2.40
2022-07-30T16:55:51.546Z,2.40
2022-07-30T16:58:21.322Z,3.57
2022-07-30T17:00:56.818Z,2.97
2022-07-30T17:03:25.775Z,1.87
2022-07-30T17:05:55.683Z,2.53
2022-07-30T17:08:24.854Z,2.23
2022-07-30T17:10:54.537Z,2.83
2022-07-30T17:13:27.218Z,2.57
2022-07-30T17:15:55.627Z,6.47
2022-07-30T17:18:24.113Z,2.70
2022-07-30T17:20:53.061Z,2.97
2022-07-30T17:23:23.089Z,3.93
2022-07-30T17:25:51.637Z,3.03
2022-07-30T17:28:21.779Z,2.60
2022-07-30T17:30:55.807Z,3.00
2022-07-30T17:33:25.246Z,2.10
2022-07-30T17:35:53.883Z,2.73
2022-07-30T17:38:24.097Z,3.73
2022-07-30T17:40:52.628Z,2.73
2022-07-30T17:43:23.956Z,2.73
2022-07-30T17:45:53.036Z,2.70
2022-07-30T17:48:21.990Z,3.00
2022-07-30T17:50:51.566Z,2.93
2022-07-30T17:53:20.121Z,4.40
2022-07-30T17:55:57.493Z,2.93
2022-07-30T17:58:27.090Z,3.00
2022-07-30T18:00:56.061Z,3.20
2022-07-30T18:03:24.765Z,2.80
2022-07-30T18:05:53.579Z,3.63
2022-07-30T18:08:23.063Z,3.70
2022-07-30T18:10:53.327Z,3.47
2022-07-30T18:13:26.763Z,3.30
2022-07-30T18:15:56.129Z,3.60
2022-07-30T18:18:24.917Z,3.23
2022-07-30T18:20:53.360Z,3.30
2022-07-30T18:23:22.756Z,3.10
2022-07-30T18:25:54.456Z,4.60
2022-07-30T18:28:23.466Z,3.40
2022-07-30T18:30:52.651Z,3.37
2022-07-30T18:33:21.539Z,3.87
2022-07-30T18:35:50.338Z,5.77
2022-07-30T18:38:19.174Z,12.27
2022-07-30T18:40:57.938Z,8.30
2022-07-30T18:43:29.035Z,8.17
2022-07-30T18:45:58.444Z,3.40
2022-07-30T18:48:27.891Z,3.80
2022-07-30T18:50:56.821Z,4.27
2022-07-30T18:53:25.319Z,3.30
2022-07-30T18:55:54.291Z,3.53
2022-07-30T18:58:23.435Z,4.07
2022-07-30T19:00:53.902Z,3.70
2022-07-30T19:03:23.270Z,3.57
2022-07-30T19:05:51.915Z,3.63
2022-07-30T19:08:20.412Z,17.80
2022-07-30T19:10:49.005Z,34.77
2022-07-30T19:13:17.587Z,78.03
2022-07-30T19:15:46.102Z,37.33
2022-07-30T19:18:16.013Z,6.33
2022-07-30T19:20:44.910Z,3.83
2022-07-30T19:23:13.901Z,4.03
2022-07-30T19:25:43.122Z,3.07
2022-07-30T19:28:14.050Z,33.50
2022-07-30T19:30:42.534Z,13.30
2022-07-30T19:33:15.574Z,79.13
2022-07-30T19:35:46.057Z,75.03
2022-07-30T19:38:22.036Z,5.63
2022-07-30T19:40:52.654Z,9.43
2022-07-30T19:43:23.948Z,44.13
2022-07-30T19:45:54.233Z,191.10
2022-07-30T19:48:29.383Z,204.83
2022-07-30T19:51:01.940Z,10.97
2022-07-30T19:53:31.278Z,4.23
2022-07-30T19:56:02.184Z,147.43
2022-07-30T19:58:32.621Z,85.53
2022-07-30T20:01:01.483Z,65.60
2022-07-30T20:03:31.859Z,12.07
2022-07-30T20:06:02.562Z,14.77
2022-07-30T20:08:31.570Z,77.03
2022-07-30T20:11:01.696Z,142.80
2022-07-30T20:13:45.310Z,34.17
2022-07-30T20:16:14.952Z,4.07
2022-07-30T20:18:45.829Z,2.30
2022-07-30T20:21:16.762Z,205.40
2022-07-30T20:23:47.223Z,72.97
2022-07-30T20:26:22.018Z,91.30
2022-07-30T20:28:52.878Z,6.07
2022-07-30T20:31:22.260Z,3.27
2022-07-30T20:33:50.897Z,1.80
2022-07-30T20:36:22.661Z,1.67
2022-07-30T20:38:51.448Z,1.57
2022-07-30T20:41:20.097Z,1.33
2022-07-30T20:43:52.561Z,2.23
2022-07-30T20:46:23.821Z,2.50
2022-07-30T20:48:53.558Z,1.80
2022-07-30T20:51:33.689Z,1.40
2022-07-30T20:54:02.728Z,1.40
2022-07-30T20:56:31.351Z,2.50
2022-07-30T20:58:59.831Z,1.87
2022-07-30T21:01:30.706Z,3.23
2022-07-30T21:03:59.677Z,2.10
2022-07-30T21:06:29.789Z,1.80
2022-07-30T21:08:58.706Z,1.83
2022-07-30T21:11:27.987Z,1.50
2022-07-30T21:13:56.608Z,2.17
2022-07-30T21:16:30.628Z,1.27
2022-07-30T21:18:59.212Z,3.47
2022-07-30T21:21:38.586Z,68.40
2022-07-30T21:24:15.677Z,57.73
2022-07-30T21:26:46.646Z,86.63
2022-07-30T21:29:15.229Z,5.00
2022-07-30T21:32:00.465Z,2.30
2022-07-30T21:34:36.032Z,1.63
2022-07-30T21:37:12.985Z,65.70
2022-07-30T21:39:44.088Z,68.10
2022-07-30T21:42:12.967Z,30.93
2022-07-30T21:44:41.703Z,3.27
2022-07-30T21:47:10.751Z,2.20
2022-07-30T21:49:40.252Z,2.07
2022-07-30T21:52:15.117Z,3.30
2022-07-30T21:54:50.434Z,1.67
2022-07-30T21:57:26.203Z,2.97
2022-07-30T21:59:55.606Z,2.27
2022-07-30T22:02:24.186Z,1.77
2022-07-30T22:04:54.085Z,1.77
2022-07-30T22:07:24.966Z,2.43
2022-07-30T22:09:55.357Z,2.50
2022-07-30T22:12:25.907Z,1.67
2022-07-30T22:14:57.854Z,1.27
2022-07-30T22:17:37.254Z,1.70
2022-07-30T22:20:14.804Z,2.17
2022-07-30T22:22:44.808Z,1.60
2022-07-30T22:25:14.195Z,1.40
2022-07-30T22:27:56.596Z,1.73
2022-07-30T22:30:27.491Z,3.20
2022-07-30T22:32:56.261Z,2.07
2022-07-30T22:35:32.391Z,2.10
2022-07-30T22:38:04.399Z,1.90
2022-07-30T22:40:33.507Z,1.77
2022-07-30T22:43:07.785Z,2.90
2022-07-30T22:45:48.139Z,2.20
2022-07-30T22:48:19.316Z,2.43
2022-07-30T22:50:52.306Z,2.13
2022-07-30T22:54:10.806Z,1.93
2022-07-30T22:56:14.324Z,2.80
2022-07-30T22:58:44.779Z,1.80
2022-07-30T23:01:17.307Z,1.90
2022-07-30T23:03:46.247Z,2.00
2022-07-30T23:06:16.808Z,2.83
2022-07-30T23:08:50.785Z,2.60
2022-07-30T23:11:19.487Z,2.40
2022-07-30T23:13:49.319Z,1.90
2022-07-30T23:16:17.848Z,3.30
2022-07-30T23:18:46.408Z,2.43
2022-07-30T23:21:15.529Z,2.27
2022-07-30T23:23:44.122Z,2.50
2022-07-30T23:26:14.314Z,2.37
2022-07-30T23:28:43.116Z,2.27
2022-07-30T23:31:12.200Z,3.37
2022-07-30T23:33:41.401Z,3.00
2022-07-30T23:36:11.013Z,2.27
2022-07-30T23:38:39.651Z,2.73
2022-07-30T23:41:08.090Z,4.33
2022-07-30T23:43:38.524Z,2.17
2022-07-30T23:46:10.899Z,2.33
2022-07-30T23:48:39.826Z,2.83
2022-07-30T23:51:08.426Z,2.30
2022-07-30T23:53:37.068Z,3.80
2022-07-30T23:56:06.218Z,2.50
2022-07-30T23:58:34.868Z,2.70
